Time;durP1;ratioP1;P1;durP2;ratioP2;P2;SDS_P1;SDS_P2;PMS_P1;PMS_P2;Temp;Humidity;BMP_temperature;BMP_pressure;BME280_temperature;BME280_humidity;BME280_pressure;Samples;Min_cycle;Max_cycle;Signal;HPM_P1;HPM_P2
2021/11/12 00:13:27;;;;;;;55.10;4.10;;;;;;;;;;5096915;28;20092;-59
2021/11/12 00:15:27;;;;;;;31.77;3.88;;;;;;;;;;5084526;28;20219;-59
2021/11/12 00:17:52;;;;;;;50.33;4.35;;;;;;;;;;5092140;28;20629;-59
2021/11/12 00:20:18;;;;;;;63.00;5.80;;;;;;;;;;5093069;28;20126;-59
2021/11/12 00:22:44;;;;;;;59.22;7.32;;;;;;;;;;5096785;28;20028;-59
2021/11/12 00:25:10;;;;;;;59.72;5.32;;;;;;;;;;5093551;28;20093;-59
2021/11/12 00:27:37;;;;;;;56.08;4.25;;;;;;;;;;5093631;28;20028;-59
2021/11/12 00:30:15;;;;;;;45.42;5.32;;;;;;;;;;5072848;28;20597;-59
2021/11/12 00:32:51;;;;;;;49.03;6.28;;;;;;;;;;5091353;28;20070;-59
2021/11/12 00:35:29;;;;;;;54.78;5.30;;;;;;;;;;5075415;28;20441;-59
2021/11/12 00:37:59;;;;;;;52.65;5.72;;;;;;;;;;5094295;28;20027;-59
2021/11/12 00:45:32;;;;;;;62.58;5.72;;;;;;;;;;5090973;28;20127;-59
2021/11/12 00:48:09;;;;;;;56.83;6.20;;;;;;;;;;5093996;28;20536;-59
2021/11/12 00:55:41;;;;;;;48.70;3.78;;;;;;;;;;5095600;28;20115;-59
2021/11/12 00:58:10;;;;;;;70.18;7.70;;;;;;;;;;5094630;28;20028;-59
2021/11/12 01:00:36;;;;;;;67.75;5.65;;;;;;;;;;5089667;28;20048;-59
2021/11/12 01:03:02;;;;;;;54.28;4.88;;;;;;;;;;5074436;28;20043;-59
2021/11/12 01:05:30;;;;;;;60.28;4.38;;;;;;;;;;5092891;28;20032;-59
2021/11/12 01:07:56;;;;;;;52.63;5.85;;;;;;;;;;5091917;28;20070;-60
2021/11/12 01:10:22;;;;;;;45.92;4.28;;;;;;;;;;5095916;28;20622;-59
2021/11/12 01:12:49;;;;;;;61.47;6.60;;;;;;;;;;5093839;28;20118;-60
2021/11/12 01:15:16;;;;;;;51.90;5.57;;;;;;;;;;5095576;28;20035;-60
2021/11/12 01:17:43;;;;;;;40.58;4.97;;;;;;;;;;5094422;28;20031;-57
2021/11/12 01:20:09;;;;;;;53.08;5.70;;;;;;;;;;5093263;28;20035;-59
2021/11/12 01:22:35;;;;;;;40.90;6.50;;;;;;;;;;5097003;28;20061;-59
2021/11/12 01:25:04;;;;;;;38.70;3.90;;;;;;;;;;5096830;28;20051;-60
2021/11/12 01:27:31;;;;;;;45.05;4.40;;;;;;;;;;5096084;28;20497;-59
2021/11/12 01:29:57;;;;;;;49.05;4.32;;;;;;;;;;5095700;28;20033;-59
2021/11/12 01:32:23;;;;;;;37.08;5.13;;;;;;;;;;5089986;28;20036;-59
2021/11/12 01:34:50;;;;;;;50.53;4.72;;;;;;;;;;5096505;28;20555;-59
2021/11/12 01:37:19;;;;;;;43.80;4.30;;;;;;;;;;5095302;28;20499;-59
2021/11/12 01:39:50;;;;;;;58.78;4.93;;;;;;;;;;5099036;28;20042;-59
2021/11/12 01:42:17;;;;;;;42.67;3.72;;;;;;;;;;5095484;28;20028;-59
2021/11/12 01:44:48;;;;;;;67.60;5.65;;;;;;;;;;5092103;28;20052;-59
2021/11/12 01:47:43;;;;;;;59.53;6.28;;;;;;;;;;5090848;28;20070;-59
2021/11/12 01:50:14;;;;;;;72.07;5.13;;;;;;;;;;5097877;28;20032;-60
2021/11/12 01:52:45;;;;;;;60.90;4.38;;;;;;;;;;5095486;28;20111;-60
2021/11/12 01:55:39;;;;;;;66.93;6.47;;;;;;;;;;5092067;28;20081;-59
2021/11/12 02:00:30;;;;;;;65.60;6.07;;;;;;;;;;5093602;28;20135;-59
2021/11/12 02:02:59;;;;;;;73.97;6.97;;;;;;;;;;5096882;28;20031;-58
2021/11/12 02:05:26;;;;;;;64.38;6.20;;;;;;;;;;5091722;28;20672;-59
2021/11/12 02:07:53;;;;;;;55.85;5.15;;;;;;;;;;5092424;28;20024;-58
2021/11/12 02:10:23;;;;;;;61.20;8.15;;;;;;;;;;5096478;28;20047;-58
2021/11/12 02:13:07;;;;;;;50.75;4.03;;;;;;;;;;5090964;28;20479;-59
2021/11/12 02:15:36;;;;;;;49.08;4.57;;;;;;;;;;5092594;28;20115;-59
2021/11/12 02:18:11;;;;;;;47.20;5.57;;;;;;;;;;5089361;28;20054;-59
2021/11/12 02:20:44;;;;;;;48.72;4.13;;;;;;;;;;5087879;28;20027;-59
2021/11/12 02:23:09;;;;;;;51.65;6.40;;;;;;;;;;5090480;28;20061;-59
2021/11/12 02:28:10;;;;;;;41.38;5.53;;;;;;;;;;5092713;28;20057;-59
2021/11/12 02:30:37;;;;;;;47.00;5.63;;;;;;;;;;5098212;28;20027;-59
2021/11/12 02:33:10;;;;;;;67.32;4.85;;;;;;;;;;5095236;28;20052;-61
2021/11/12 02:35:41;;;;;;;34.67;4.85;;;;;;;;;;5097135;28;20386;-59
2021/11/12 02:38:10;;;;;;;55.97;4.30;;;;;;;;;;5096490;28;20105;-60
2021/11/12 02:40:38;;;;;;;46.70;6.63;;;;;;;;;;5093235;28;20039;-60
2021/11/12 02:43:05;;;;;;;46.33;5.50;;;;;;;;;;5093518;28;20494;-60
2021/11/12 02:45:31;;;;;;;49.75;4.47;;;;;;;;;;5097371;28;20063;-60
2021/11/12 02:47:56;;;;;;;58.15;6.10;;;;;;;;;;5099945;28;20065;-60
2021/11/12 02:50:23;;;;;;;38.88;3.95;;;;;;;;;;5093605;27;20045;-58
2021/11/12 02:52:58;;;;;;;57.22;5.55;;;;;;;;;;5093577;28;20102;-59
2021/11/12 02:55:25;;;;;;;64.38;5.45;;;;;;;;;;5094633;28;20529;-59
2021/11/12 02:57:50;;;;;;;49.22;4.07;;;;;;;;;;5094767;28;20032;-59
2021/11/12 03:00:21;;;;;;;43.85;4.07;;;;;;;;;;5076528;28;20042;-59
2021/11/12 03:02:47;;;;;;;44.17;5.15;;;;;;;;;;5099632;28;20417;-58
2021/11/12 03:05:12;;;;;;;68.80;6.13;;;;;;;;;;5093137;28;20027;-59
2021/11/12 03:07:38;;;;;;;47.33;3.75;;;;;;;;;;5091612;27;20028;-59
2021/11/12 03:10:04;;;;;;;62.50;6.75;;;;;;;;;;5097241;28;20171;-59
2021/11/12 03:12:30;;;;;;;54.70;5.40;;;;;;;;;;5094084;28;20060;-59
2021/11/12 03:14:56;;;;;;;66.70;4.53;;;;;;;;;;5096984;28;20027;-59
2021/11/12 03:17:21;;;;;;;55.03;6.60;;;;;;;;;;5095364;27;20034;-59
2021/11/12 03:19:48;;;;;;;48.45;4.70;;;;;;;;;;5095496;28;20047;-59
2021/11/12 03:22:18;;;;;;;55.45;4.97;;;;;;;;;;5098782;28;20065;-59
2021/11/12 03:24:56;;;;;;;64.65;5.70;;;;;;;;;;5098375;27;20020;-59
2021/11/12 03:27:49;;;;;;;74.53;5.60;;;;;;;;;;5094145;28;20051;-59
2021/11/12 04:19:37;;;;;;;64.90;5.18;;;;;;;;;;5093931;28;20051;-58
2021/11/12 05:44:01;;;;;;;45.35;4.18;;;;;;;;;;5089512;28;20085;-59
2021/11/12 05:46:58;;;;;;;34.75;3.85;;;;;;;;;;5093451;28;20031;-59
2021/11/12 05:52:11;;;;;;;41.47;4.18;;;;;;;;;;5093764;28;20036;-58
2021/11/12 05:57:21;;;;;;;34.85;4.07;;;;;;;;;;5093455;28;20362;-58
2021/11/12 05:59:47;;;;;;;43.10;3.85;;;;;;;;;;5092077;28;20035;-58
2021/11/12 06:02:13;;;;;;;40.95;3.13;;;;;;;;;;5093469;28;20028;-58
2021/11/12 06:04:39;;;;;;;35.75;4.68;;;;;;;;;;5092502;28;20122;-58
2021/11/12 06:07:05;;;;;;;27.88;2.75;;;;;;;;;;5091032;28;20020;-58
2021/11/12 06:09:31;;;;;;;30.98;3.03;;;;;;;;;;5095306;28;20038;-59
2021/11/12 06:11:56;;;;;;;53.35;3.90;;;;;;;;;;5095971;28;20507;-59
2021/11/12 06:14:24;;;;;;;50.75;4.50;;;;;;;;;;5097001;28;20524;-59
2021/11/12 06:16:50;;;;;;;31.63;4.43;;;;;;;;;;5093895;28;20454;-60
2021/11/12 06:19:16;;;;;;;42.60;4.28;;;;;;;;;;5096972;28;20105;-59
2021/11/12 06:21:43;;;;;;;49.38;5.20;;;;;;;;;;5101699;27;20031;-59
2021/11/12 06:24:10;;;;;;;40.92;3.80;;;;;;;;;;5091855;28;20038;-59
2021/11/12 06:26:35;;;;;;;34.90;3.67;;;;;;;;;;5075478;28;20031;-59
2021/11/12 06:29:01;;;;;;;30.55;3.25;;;;;;;;;;5102527;28;20077;-59
2021/11/12 06:31:27;;;;;;;39.65;5.07;;;;;;;;;;5099180;28;20032;-59
2021/11/12 06:33:54;;;;;;;44.20;4.15;;;;;;;;;;5101517;28;20535;-59
2021/11/12 06:36:21;;;;;;;47.50;4.57;;;;;;;;;;5105500;27;20564;-60
2021/11/12 06:38:47;;;;;;;33.10;3.42;;;;;;;;;;5096950;28;20394;-59
2021/11/12 06:41:14;;;;;;;33.00;2.88;;;;;;;;;;5095359;28;20456;-60
2021/11/12 06:43:52;;;;;;;31.63;3.63;;;;;;;;;;5094277;28;20486;-60
2021/11/12 06:49:30;;;;;;;22.70;2.67;;;;;;;;;;5012715;28;20048;-60
2021/11/12 06:51:57;;;;;;;25.92;2.25;;;;;;;;;;5097629;28;20421;-58
2021/11/12 06:54:23;;;;;;;28.55;3.40;;;;;;;;;;5098538;28;20024;-58
2021/11/12 06:56:49;;;;;;;35.50;2.63;;;;;;;;;;5096654;28;20020;-58
2021/11/12 06:59:15;;;;;;;29.52;2.95;;;;;;;;;;5098440;28;20043;-59
2021/11/12 07:01:41;;;;;;;34.72;3.13;;;;;;;;;;5097241;28;20516;-59
2021/11/12 07:04:06;;;;;;;26.25;2.50;;;;;;;;;;5096831;28;20095;-58
2021/11/12 07:06:34;;;;;;;39.75;2.53;;;;;;;;;;5103417;28;20032;-59
2021/11/12 07:09:00;;;;;;;33.88;3.40;;;;;;;;;;5091917;28;20090;-58
2021/11/12 07:11:25;;;;;;;37.20;4.57;;;;;;;;;;5098367;28;20506;-58
2021/11/12 07:13:51;;;;;;;31.38;3.20;;;;;;;;;;5075817;28;20040;-59
2021/11/12 07:16:17;;;;;;;45.03;4.07;;;;;;;;;;5095482;28;20044;-58
2021/11/12 07:18:42;;;;;;;28.98;2.72;;;;;;;;;;5094545;28;20020;-59
2021/11/12 07:21:08;;;;;;;38.30;3.22;;;;;;;;;;5097863;28;20043;-58
2021/11/12 07:23:33;;;;;;;31.95;3.88;;;;;;;;;;5099623;28;20089;-59
2021/11/12 07:25:59;;;;;;;24.52;3.50;;;;;;;;;;5097464;28;20027;-59
2021/11/12 07:28:26;;;;;;;34.22;3.45;;;;;;;;;;5065627;28;20470;-58
2021/11/12 07:30:55;;;;;;;31.98;3.35;;;;;;;;;;5097396;28;20080;-59
2021/11/12 07:33:21;;;;;;;21.80;3.13;;;;;;;;;;5093653;28;20063;-59
2021/11/12 07:35:58;;;;;;;20.52;2.50;;;;;;;;;;5093991;28;20779;-59
2021/11/12 07:38:59;;;;;;;18.05;1.90;;;;;;;;;;5093155;28;20030;-59
2021/11/12 07:41:22;;;;;;;18.05;2.05;;;;;;;;;;5092572;28;20414;-59
2021/11/12 07:46:45;;;;;;;19.52;1.65;;;;;;;;;;5041926;28;20134;-59
2021/11/12 07:49:12;;;;;;;25.50;3.50;;;;;;;;;;5095038;28;20024;-58
2021/11/12 07:51:40;;;;;;;19.63;1.38;;;;;;;;;;5095058;28;20067;-59
2021/11/12 07:54:06;;;;;;;16.98;1.52;;;;;;;;;;5094315;28;20020;-59
2021/11/12 07:56:33;;;;;;;15.38;1.27;;;;;;;;;;5092496;28;20031;-58
2021/11/12 07:58:58;;;;;;;14.38;1.48;;;;;;;;;;5098656;27;20100;-59
2021/11/12 08:01:24;;;;;;;19.17;2.17;;;;;;;;;;5094665;28;20139;-58
2021/11/12 08:03:54;;;;;;;14.20;1.38;;;;;;;;;;5091938;28;20027;-58
2021/11/12 08:06:20;;;;;;;13.73;1.05;;;;;;;;;;5094273;28;20028;-58
2021/11/12 08:11:55;;;;;;;19.92;1.58;;;;;;;;;;5072053;28;20073;-58
2021/11/12 08:19:32;;;;;;;7.18;0.43;;;;;;;;;;5100253;28;20069;-58
2021/11/12 08:24:38;;;;;;;12.52;1.35;;;;;;;;;;5096486;28;20040;-57
2021/11/12 08:34:49;;;;;;;9.68;0.40;;;;;;;;;;5092375;28;20513;-58
2021/11/12 08:40:35;;;;;;;5.88;0.47;;;;;;;;;;5022988;28;20046;-58
2021/11/12 08:43:08;;;;;;;1.25;0.15;;;;;;;;;;5083397;28;20054;-58
2021/11/12 08:45:41;;;;;;;5.63;0.60;;;;;;;;;;5092121;28;20073;-59
2021/11/12 08:48:21;;;;;;;4.40;0.43;;;;;;;;;;5097883;28;20375;-58
2021/11/12 08:50:46;;;;;;;13.07;1.75;;;;;;;;;;5092209;28;20632;-59
2021/11/12 08:53:14;;;;;;;7.25;0.45;;;;;;;;;;5094491;28;20543;-58
2021/11/12 08:55:41;;;;;;;9.02;0.47;;;;;;;;;;5102024;28;20023;-59
2021/11/12 08:58:10;;;;;;;3.17;0.50;;;;;;;;;;5099067;28;20199;-58
2021/11/12 09:00:37;;;;;;;7.30;0.65;;;;;;;;;;5093231;28;20036;-58
2021/11/12 09:03:03;;;;;;;7.85;0.20;;;;;;;;;;5103831;28;20084;-58
2021/11/12 09:05:29;;;;;;;5.97;0.50;;;;;;;;;;5072012;28;20418;-58
2021/11/12 09:07:56;;;;;;;6.28;1.38;;;;;;;;;;5091025;28;20027;-57
2021/11/12 09:10:24;;;;;;;9.20;1.20;;;;;;;;;;5099361;28;20031;-58
2021/11/12 09:12:56;;;;;;;5.25;0.63;;;;;;;;;;5100007;28;20032;-57
2021/11/12 09:15:31;;;;;;;5.47;0.52;;;;;;;;;;5091897;28;20024;-57
2021/11/12 09:17:59;;;;;;;2.15;0.20;;;;;;;;;;5098068;28;20030;-58
2021/11/12 09:20:26;;;;;;;5.18;0.28;;;;;;;;;;5073605;28;20040;-58
2021/11/12 09:22:53;;;;;;;8.77;1.25;;;;;;;;;;5100585;28;20084;-57
2021/11/12 09:25:21;;;;;;;5.43;0.63;;;;;;;;;;5098446;28;20031;-59
2021/11/12 09:27:46;;;;;;;3.20;0.13;;;;;;;;;;5099713;28;20027;-59
2021/11/12 09:30:21;;;;;;;6.40;0.50;;;;;;;;;;5091960;28;20036;-59
2021/11/12 09:32:46;;;;;;;6.13;0.32;;;;;;;;;;5089677;28;20084;-59
2021/11/12 09:35:13;;;;;;;2.53;0.10;;;;;;;;;;5076391;28;20067;-59
2021/11/12 09:37:38;;;;;;;1.73;0.10;;;;;;;;;;5090204;28;20020;-58
2021/11/12 09:40:05;;;;;;;2.80;0.20;;;;;;;;;;5102230;28;20104;-59
2021/11/12 09:42:33;;;;;;;2.72;0.20;;;;;;;;;;5091463;28;20016;-59
2021/11/12 09:44:59;;;;;;;1.52;0.10;;;;;;;;;;5098320;28;20122;-59
2021/11/12 09:47:27;;;;;;;2.25;0.30;;;;;;;;;;5101769;28;20502;-59
2021/11/12 09:49:55;;;;;;;4.05;0.30;;;;;;;;;;5095569;28;20554;-59
2021/11/12 09:52:23;;;;;;;1.77;0.60;;;;;;;;;;5097785;28;20510;-59
2021/11/12 09:54:51;;;;;;;2.30;0.30;;;;;;;;;;5096794;28;20040;-59
2021/11/12 09:57:16;;;;;;;4.00;0.20;;;;;;;;;;5102339;28;20100;-59
2021/11/12 09:59:56;;;;;;;4.43;0.30;;;;;;;;;;5098443;28;20102;-59
2021/11/12 10:02:22;;;;;;;8.07;0.47;;;;;;;;;;5098334;28;20284;-57
2021/11/12 10:04:48;;;;;;;2.42;0.40;;;;;;;;;;5103628;28;20049;-58
2021/11/12 10:07:16;;;;;;;5.13;0.77;;;;;;;;;;5095028;28;20521;-58
2021/11/12 10:09:44;;;;;;;4.32;0.70;;;;;;;;;;5092542;28;20039;-59
2021/11/12 10:12:11;;;;;;;1.77;0.22;;;;;;;;;;5096453;28;20139;-62
2021/11/12 10:14:49;;;;;;;5.63;0.65;;;;;;;;;;5100245;28;20066;-58
2021/11/12 10:17:15;;;;;;;3.63;0.43;;;;;;;;;;5086625;28;20098;-58
2021/11/12 10:19:41;;;;;;;2.95;0.50;;;;;;;;;;5096439;28;20034;-57
2021/11/12 10:22:07;;;;;;;4.43;0.38;;;;;;;;;;5096973;28;20107;-59
2021/11/12 10:24:35;;;;;;;5.68;0.60;;;;;;;;;;5093621;28;20115;-60
2021/11/12 10:27:08;;;;;;;5.70;0.20;;;;;;;;;;5098238;28;20019;-59
2021/11/12 10:29:46;;;;;;;6.20;0.82;;;;;;;;;;5097820;28;20031;-59
2021/11/12 10:32:22;;;;;;;3.67;0.20;;;;;;;;;;5092664;28;20024;-59
2021/11/12 10:34:50;;;;;;;0.45;0.10;;;;;;;;;;5081725;28;20038;-59
2021/11/12 10:37:25;;;;;;;3.83;0.75;;;;;;;;;;5097752;28;20111;-59
2021/11/12 10:39:57;;;;;;;3.50;0.63;;;;;;;;;;5095358;28;20042;-59
2021/11/12 10:42:23;;;;;;;9.02;0.40;;;;;;;;;;5102718;28;20028;-59
2021/11/12 10:45:10;;;;;;;10.80;0.77;;;;;;;;;;5095226;27;20028;-59
2021/11/12 10:47:46;;;;;;;3.75;0.40;;;;;;;;;;5102232;28;20193;-60
2021/11/12 10:50:12;;;;;;;6.25;0.45;;;;;;;;;;5098749;28;20109;-59
2021/11/12 10:52:38;;;;;;;4.78;0.52;;;;;;;;;;5100615;28;20035;-60
2021/11/12 10:55:14;;;;;;;3.20;0.40;;;;;;;;;;5104766;28;20028;-60
2021/11/12 10:58:01;;;;;;;5.85;0.35;;;;;;;;;;5096599;28;20406;-59
2021/11/12 11:00:31;;;;;;;2.03;0.20;;;;;;;;;;5105215;28;20036;-59
2021/11/12 11:03:01;;;;;;;1.98;0.57;;;;;;;;;;5096747;28;20055;-59
2021/11/12 11:05:33;;;;;;;2.05;0.20;;;;;;;;;;5099789;28;20035;-59
2021/11/12 11:08:07;;;;;;;0.65;0.22;;;;;;;;;;5094150;28;20024;-59
2021/11/12 11:10:40;;;;;;;0.85;0.38;;;;;;;;;;5097360;28;20042;-59
2021/11/12 11:13:10;;;;;;;1.10;0.10;;;;;;;;;;5098428;28;20039;-59
2021/11/12 11:15:45;;;;;;;3.28;0.30;;;;;;;;;;5100445;28;20066;-59
2021/11/12 11:18:32;;;;;;;2.55;0.50;;;;;;;;;;5099728;28;20150;-59
2021/11/12 11:23:46;;;;;;;1.98;0.20;;;;;;;;;;5103074;28;20122;-59
2021/11/12 11:26:46;;;;;;;1.48;0.30;;;;;;;;;;5090570;28;20055;-59
2021/11/12 11:29:17;;;;;;;1.88;0.32;;;;;;;;;;5078625;28;20391;-60
2021/11/12 11:31:43;;;;;;;4.75;0.25;;;;;;;;;;5102632;28;20038;-59
2021/11/12 11:34:09;;;;;;;2.40;0.43;;;;;;;;;;5097359;28;20036;-59
2021/11/12 11:36:37;;;;;;;3.35;0.52;;;;;;;;;;5104142;27;20032;-59
2021/11/12 11:39:06;;;;;;;4.20;0.73;;;;;;;;;;5094278;28;20032;-59
2021/11/12 11:41:32;;;;;;;8.90;2.30;;;;;;;;;;5095869;28;20032;-59
2021/11/12 11:43:58;;;;;;;8.32;2.08;;;;;;;;;;5093525;28;20513;-59
2021/11/12 11:46:33;;;;;;;3.53;0.63;;;;;;;;;;5092570;28;20031;-59
2021/11/12 11:49:00;;;;;;;4.32;0.70;;;;;;;;;;5097226;27;20069;-59
2021/11/12 11:51:27;;;;;;;6.13;0.90;;;;;;;;;;5095672;28;20244;-60
2021/11/12 11:53:53;;;;;;;3.00;0.50;;;;;;;;;;5091966;28;20027;-60
2021/11/12 11:56:29;;;;;;;5.20;0.80;;;;;;;;;;5090948;28;20032;-60
2021/11/12 11:58:56;;;;;;;8.80;0.98;;;;;;;;;;5081444;28;20191;-60
2021/11/12 12:01:22;;;;;;;8.20;1.85;;;;;;;;;;5090831;28;20084;-60
2021/11/12 12:04:12;;;;;;;6.28;0.73;;;;;;;;;;5099453;28;20023;-60
2021/11/12 12:06:56;;;;;;;9.25;0.80;;;;;;;;;;5096632;28;20446;-59
2021/11/12 12:09:41;;;;;;;2.67;0.52;;;;;;;;;;5093964;28;20024;-60
2021/11/12 12:12:08;;;;;;;3.25;0.55;;;;;;;;;;5089791;28;20035;-60
2021/11/12 12:14:36;;;;;;;14.40;0.82;;;;;;;;;;5091199;28;20035;-60
2021/11/12 12:17:12;;;;;;;9.05;0.73;;;;;;;;;;5093113;28;20032;-59
2021/11/12 12:19:59;;;;;;;3.13;0.32;;;;;;;;;;5097181;28;20114;-59
2021/11/12 13:25:58;;;;;;;17.65;1.75;;;;;;;;;;5093313;28;20027;-59
2021/11/12 13:28:40;;;;;;;10.73;1.48;;;;;;;;;;5096819;28;20031;-59
2021/11/12 13:31:12;;;;;;;10.13;1.27;;;;;;;;;;5091382;28;20019;-59
2021/11/12 13:33:44;;;;;;;6.32;0.85;;;;;;;;;;5094496;28;20439;-59
2021/11/12 13:36:22;;;;;;;10.20;1.33;;;;;;;;;;5093971;28;20054;-59
2021/11/12 13:38:57;;;;;;;5.32;0.73;;;;;;;;;;5091254;28;20390;-59
2021/11/12 13:41:26;;;;;;;8.02;1.23;;;;;;;;;;5089273;28;20040;-59
2021/11/12 13:44:18;;;;;;;3.58;0.85;;;;;;;;;;5095007;28;20042;-59
2021/11/12 13:46:53;;;;;;;6.15;0.80;;;;;;;;;;5094789;28;20043;-59
2021/11/12 13:49:32;;;;;;;11.93;1.17;;;;;;;;;;5093426;28;20024;-59
2021/11/12 13:52:06;;;;;;;8.27;0.93;;;;;;;;;;5092087;28;20059;-59
2021/11/12 13:54:43;;;;;;;5.85;0.77;;;;;;;;;;5094181;28;20016;-59
2021/11/12 13:57:18;;;;;;;8.10;1.50;;;;;;;;;;5093990;28;20433;-59
2021/11/12 13:59:50;;;;;;;10.60;0.98;;;;;;;;;;5093824;28;20028;-59
2021/11/12 14:02:16;;;;;;;16.45;1.50;;;;;;;;;;5093564;28;20035;-58
2021/11/12 14:04:41;;;;;;;7.32;1.08;;;;;;;;;;5092643;28;20028;-58
2021/11/12 14:07:22;;;;;;;8.02;1.13;;;;;;;;;;5098606;28;20047;-58
2021/11/12 14:10:09;;;;;;;9.52;0.88;;;;;;;;;;5091940;28;20031;-59
2021/11/12 14:12:36;;;;;;;4.32;0.63;;;;;;;;;;5090338;28;20070;-59
2021/11/12 14:15:16;;;;;;;7.22;1.13;;;;;;;;;;5096913;28;20024;-58
2021/11/12 14:17:56;;;;;;;10.88;1.15;;;;;;;;;;5093580;28;20032;-59
2021/11/12 14:20:32;;;;;;;10.30;1.05;;;;;;;;;;5100201;28;20035;-59
2021/11/12 14:23:21;;;;;;;17.88;1.80;;;;;;;;;;5097509;28;20024;-59
2021/11/12 14:26:23;;;;;;;13.18;1.35;;;;;;;;;;5071650;28;20024;-58
2021/11/12 14:28:51;;;;;;;26.98;1.88;;;;;;;;;;5095287;28;20040;-58
2021/11/12 14:37:06;;;;;;;5.50;1.20;;;;;;;;;;5094028;28;20459;-59
2021/11/12 14:39:36;;;;;;;8.05;1.05;;;;;;;;;;5096768;28;20039;-59
2021/11/12 14:48:00;;;;;;;9.80;1.10;;;;;;;;;;5094819;28;20125;-59
2021/11/12 14:51:00;;;;;;;8.93;1.08;;;;;;;;;;5095276;28;20490;-57
2021/11/12 14:56:18;;;;;;;8.32;0.90;;;;;;;;;;5099643;28;20498;-58
2021/11/12 14:58:47;;;;;;;18.37;1.63;;;;;;;;;;5097143;28;20031;-58
2021/11/12 15:01:18;;;;;;;9.15;1.20;;;;;;;;;;5088647;28;20031;-58
2021/11/12 15:03:45;;;;;;;4.68;0.45;;;;;;;;;;5094468;28;20506;-58
2021/11/12 15:06:14;;;;;;;5.93;0.70;;;;;;;;;;5094907;28;20032;-58
2021/11/12 15:08:54;;;;;;;7.88;0.68;;;;;;;;;;5095846;28;20028;-58
2021/11/12 15:11:24;;;;;;;13.52;1.00;;;;;;;;;;5101095;28;20040;-58
2021/11/12 15:13:52;;;;;;;12.13;1.02;;;;;;;;;;5094845;28;20043;-58
2021/11/12 15:16:25;;;;;;;4.90;0.77;;;;;;;;;;5086206;28;20085;-58
2021/11/12 15:18:56;;;;;;;7.28;0.70;;;;;;;;;;5094725;28;20024;-58
2021/11/12 15:21:27;;;;;;;7.13;0.93;;;;;;;;;;5098860;28;20039;-58
2021/11/12 15:24:16;;;;;;;11.55;0.90;;;;;;;;;;5097430;28;20032;-58
2021/11/12 15:32:14;;;;;;;5.97;0.73;;;;;;;;;;5099108;28;20039;-59
2021/11/12 15:34:45;;;;;;;3.95;0.47;;;;;;;;;;5079245;28;20066;-59
2021/11/12 15:44:42;;;;;;;4.90;1.05;;;;;;;;;;5093543;28;20032;-58
2021/11/12 15:47:25;;;;;;;6.80;0.93;;;;;;;;;;5081506;28;20028;-59
2021/11/12 15:50:01;;;;;;;7.82;1.02;;;;;;;;;;5092491;28;20399;-59
2021/11/12 16:01:01;;;;;;;17.58;1.60;;;;;;;;;;5094788;28;20043;-59
2021/11/12 16:24:42;;;;;;;14.57;1.00;;;;;;;;;;5093710;28;20034;-59
2021/11/12 16:26:45;;;;;;;7.25;1.23;;;;;;;;;;5083677;28;20107;-59
2021/11/12 16:31:38;;;;;;;10.50;1.10;;;;;;;;;;5095439;28;20515;-59
2021/11/12 16:34:14;;;;;;;7.85;1.35;;;;;;;;;;5083544;28;20027;-59
2021/11/12 16:36:56;;;;;;;9.50;1.17;;;;;;;;;;5092590;28;20039;-59
2021/11/12 16:40:13;;;;;;;7.40;1.52;;;;;;;;;;5088715;28;20032;-58
2021/11/12 16:45:02;;;;;;;7.18;1.40;;;;;;;;;;5091801;28;20097;-59
2021/11/12 16:50:16;;;;;;;13.33;1.57;;;;;;;;;;5095231;28;20040;-59
2021/11/12 16:55:51;;;;;;;9.55;1.63;;;;;;;;;;5098789;28;20042;-59
2021/11/12 16:58:35;;;;;;;10.70;2.55;;;;;;;;;;5088604;28;20266;-59
2021/11/12 17:09:49;;;;;;;13.82;1.50;;;;;;;;;;5089563;28;20386;-59
2021/11/12 17:22:53;;;;;;;16.60;1.90;;;;;;;;;;5088945;28;20517;-59
2021/11/12 17:47:09;;;;;;;14.65;1.98;;;;;;;;;;5094475;28;20045;-59
2021/11/12 18:05:47;;;;;;;10.10;2.25;;;;;;;;;;5093778;28;20089;-60
2021/11/12 18:08:47;;;;;;;14.60;2.53;;;;;;;;;;5101454;28;20098;-59
2021/11/12 21:48:37;;;;;;;7.63;1.52;;;;;;;;;;5094279;28;20402;-61
2021/11/12 21:51:04;;;;;;;4.93;1.15;;;;;;;;;;5082997;28;20440;-61
2021/11/12 21:53:33;;;;;;;7.03;2.08;;;;;;;;;;5098404;28;20106;-60
2021/11/12 21:56:00;;;;;;;4.80;1.40;;;;;;;;;;5098970;28;20031;-60
2021/11/12 21:58:28;;;;;;;8.35;1.73;;;;;;;;;;5093584;28;20020;-60
2021/11/12 22:00:55;;;;;;;8.32;2.05;;;;;;;;;;5074692;28;20066;-60
2021/11/12 22:03:23;;;;;;;4.03;1.63;;;;;;;;;;5092277;28;20555;-60
2021/11/12 22:05:49;;;;;;;4.55;1.25;;;;;;;;;;5097765;28;20470;-60
2021/11/12 22:08:14;;;;;;;5.82;2.40;;;;;;;;;;5094666;28;20026;-60
2021/11/12 22:10:40;;;;;;;16.30;1.75;;;;;;;;;;5096807;28;20076;-60
2021/11/12 22:13:08;;;;;;;14.57;2.22;;;;;;;;;;5099759;28;20605;-61
2021/11/12 22:15:33;;;;;;;6.35;2.40;;;;;;;;;;5098232;28;20027;-61
2021/11/12 22:17:59;;;;;;;11.18;2.45;;;;;;;;;;5091684;28;20107;-62
2021/11/12 22:20:25;;;;;;;9.57;1.60;;;;;;;;;;5102648;28;20104;-59
2021/11/12 22:22:51;;;;;;;4.47;1.55;;;;;;;;;;5096692;28;20028;-61
2021/11/12 22:25:17;;;;;;;11.13;2.03;;;;;;;;;;5096571;28;20028;-60
2021/11/12 22:27:43;;;;;;;5.25;1.58;;;;;;;;;;5095773;28;20426;-60
2021/11/12 22:30:11;;;;;;;10.52;1.73;;;;;;;;;;5079755;28;20035;-60
2021/11/12 22:32:37;;;;;;;6.60;1.30;;;;;;;;;;5099522;28;20073;-59
2021/11/12 22:35:03;;;;;;;4.95;1.75;;;;;;;;;;5095686;28;20031;-60
2021/11/12 22:37:29;;;;;;;3.75;1.48;;;;;;;;;;5107653;28;20039;-60
2021/11/12 22:39:55;;;;;;;9.68;1.80;;;;;;;;;;5097024;28;20028;-60
2021/11/12 22:42:21;;;;;;;3.90;1.30;;;;;;;;;;5096305;28;20030;-59
2021/11/12 22:44:47;;;;;;;5.18;1.27;;;;;;;;;;5102112;28;20028;-59
2021/11/12 22:47:13;;;;;;;7.53;1.60;;;;;;;;;;5094173;28;20036;-60
2021/11/12 22:49:39;;;;;;;4.07;1.30;;;;;;;;;;5096620;28;20494;-59
2021/11/12 22:52:05;;;;;;;5.20;1.10;;;;;;;;;;5084409;28;20059;-59
2021/11/12 22:54:31;;;;;;;6.03;1.27;;;;;;;;;;5093991;28;20142;-59
2021/11/12 22:56:57;;;;;;;10.13;2.55;;;;;;;;;;5098483;28;20089;-59
2021/11/12 22:59:23;;;;;;;9.98;2.05;;;;;;;;;;5096015;28;20550;-60
2021/11/12 23:01:49;;;;;;;4.65;1.30;;;;;;;;;;5095264;27;20127;-60
2021/11/12 23:04:14;;;;;;;3.92;1.55;;;;;;;;;;5077137;28;20464;-60
2021/11/12 23:06:42;;;;;;;8.38;2.03;;;;;;;;;;5099176;28;20032;-60
2021/11/12 23:09:08;;;;;;;6.00;1.95;;;;;;;;;;5097046;28;20031;-60
2021/11/12 23:11:34;;;;;;;8.13;1.98;;;;;;;;;;5098239;28;20052;-58
2021/11/12 23:14:00;;;;;;;8.35;2.35;;;;;;;;;;5094817;28;20346;-58
2021/11/12 23:16:25;;;;;;;17.73;2.28;;;;;;;;;;5098424;28;20418;-58
2021/11/12 23:18:52;;;;;;;9.13;1.30;;;;;;;;;;5093132;28;20671;-58
2021/11/12 23:21:18;;;;;;;5.22;1.48;;;;;;;;;;5100266;28;20042;-59
2021/11/12 23:23:49;;;;;;;4.07;1.02;;;;;;;;;;5094568;28;20337;-58
2021/11/12 23:26:17;;;;;;;4.45;1.20;;;;;;;;;;5091688;28;20040;-58
2021/11/12 23:28:42;;;;;;;5.25;1.33;;;;;;;;;;5100381;28;20038;-59
2021/11/12 23:31:08;;;;;;;8.98;1.67;;;;;;;;;;5094673;28;20036;-59
2021/11/12 23:33:34;;;;;;;3.78;1.38;;;;;;;;;;5094668;28;20237;-59
2021/11/12 23:36:00;;;;;;;4.18;1.08;;;;;;;;;;5099776;28;20032;-59
2021/11/12 23:38:25;;;;;;;3.70;0.80;;;;;;;;;;5095601;28;20035;-59
2021/11/12 23:40:51;;;;;;;6.25;1.10;;;;;;;;;;5093859;28;20036;-58
2021/11/12 23:43:17;;;;;;;5.13;1.05;;;;;;;;;;5094590;28;20032;-58
2021/11/12 23:45:43;;;;;;;2.25;0.68;;;;;;;;;;5094656;28;20096;-58
2021/11/12 23:48:08;;;;;;;3.00;1.23;;;;;;;;;;5100467;28;20057;-58
2021/11/12 23:50:35;;;;;;;5.05;1.00;;;;;;;;;;5095616;28;20513;-58
2021/11/12 23:53:00;;;;;;;4.43;1.40;;;;;;;;;;5103532;28;20023;-58
2021/11/12 23:55:26;;;;;;;3.15;1.77;;;;;;;;;;5096095;28;20023;-59
2021/11/12 23:57:52;;;;;;;4.65;1.48;;;;;;;;;;5094232;28;20024;-58
